GEC8562 VVTS-VHHX
Flight info
| Callsign | GEC8562 |
|---|---|
| Flight time | N/A |
| Altitude | 35000 |
| Route | PATMA5P/25L PATMA W12 PCA G221 BUNTA A1 IKELA/N0485F350 P901 IDOSI |
| Aircraft | MD11/H-SDE1E2E3FGHIJ2J3J4J5M1RWXY/LB1D1 |
Departure
| Time | N/A |
|---|---|
| Airport | Tan Son Nhat International Airport (VVTS) |
Arrival
| Time | 2026-04-28 15:45 |
|---|---|
| Airport | Hong Kong International Airport Kai Tak (VHHX) |
| Time | Latitude | Longitude | Altitude | Speed | Heading |
|---|---|---|---|---|---|
| 2026-04-28 14:45 | 13.61922 | 108.80229 | 34899 ft | 488 kts | 34° |
| 2026-04-28 14:45 | 13.73015 | 108.88204 | 34896 ft | 489 kts | 34° |
| 2026-04-28 14:46 | 13.95500 | 109.03886 | 34879 ft | 487 kts | 21° |
| 2026-04-28 14:46 | 14.08776 | 109.05842 | 34899 ft | 486 kts | 2° |
| 2026-04-28 14:46 | 14.22207 | 109.07148 | 34897 ft | 487 kts | 6° |
| 2026-04-28 14:47 | 14.49072 | 109.10487 | 34895 ft | 487 kts | 6° |
| 2026-04-28 14:47 | 14.75767 | 109.13782 | 34888 ft | 487 kts | 6° |
| 2026-04-28 14:48 | 15.02652 | 109.17112 | 34888 ft | 488 kts | 6° |
| 2026-04-28 14:48 | 15.29543 | 109.20450 | 34887 ft | 488 kts | 6° |
| 2026-04-28 14:49 | 15.56480 | 109.23802 | 34887 ft | 488 kts | 6° |
| 2026-04-28 14:49 | 15.83418 | 109.27166 | 34879 ft | 488 kts | 6° |
| 2026-04-28 14:50 | 16.10373 | 109.30538 | 34878 ft | 490 kts | 5° |
| 2026-04-28 14:50 | 16.37403 | 109.33929 | 34878 ft | 490 kts | 5° |
| 2026-04-28 14:51 | 16.64446 | 109.37333 | 34887 ft | 491 kts | 5° |
| 2026-04-28 14:51 | 16.89040 | 109.47430 | 34889 ft | 498 kts | 52° |
| 2026-04-28 14:52 | 17.04322 | 109.71632 | 34880 ft | 500 kts | 56° |
| 2026-04-28 14:52 | 17.19769 | 109.95742 | 34877 ft | 501 kts | 56° |
| 2026-04-28 14:53 | 17.35214 | 110.19957 | 34878 ft | 501 kts | 56° |
| 2026-04-28 14:53 | 17.50753 | 110.44211 | 34879 ft | 502 kts | 55° |
| 2026-04-28 14:54 | 17.56946 | 110.53811 | 34880 ft | 502 kts | 55° |
| 2026-04-28 14:54 | 17.60840 | 110.59860 | 34886 ft | 502 kts | 55° |
| 2026-04-28 14:55 | 17.64738 | 110.65918 | 34888 ft | 502 kts | 55° |
| 2026-04-28 14:55 | 17.68635 | 110.71984 | 34888 ft | 502 kts | 55° |
| 2026-04-28 14:56 | 17.72531 | 110.78049 | 34888 ft | 503 kts | 55° |
| 2026-04-28 14:56 | 17.76425 | 110.84121 | 34887 ft | 503 kts | 55° |
| 2026-04-28 14:57 | 17.80324 | 110.90204 | 34888 ft | 503 kts | 55° |
| 2026-04-28 14:57 | 17.84216 | 110.96287 | 34888 ft | 503 kts | 55° |
| 2026-04-28 14:58 | 17.88115 | 111.02383 | 34888 ft | 503 kts | 55° |
| 2026-04-28 14:58 | 17.92000 | 111.08480 | 34888 ft | 504 kts | 55° |
| 2026-04-28 14:59 | 17.95889 | 111.14579 | 34888 ft | 504 kts | 55° |
| 2026-04-28 14:59 | 17.99785 | 111.20689 | 34888 ft | 505 kts | 55° |
| 2026-04-28 15:00 | 18.03680 | 111.26796 | 34888 ft | 505 kts | 55° |
| 2026-04-28 15:00 | 18.07586 | 111.32932 | 34888 ft | 506 kts | 55° |
| 2026-04-28 15:01 | 18.11490 | 111.39069 | 34888 ft | 506 kts | 55° |
| 2026-04-28 15:01 | 18.15387 | 111.45198 | 34887 ft | 506 kts | 55° |
| 2026-04-28 15:02 | 18.19285 | 111.51336 | 34885 ft | 506 kts | 55° |
| 2026-04-28 15:02 | 18.23187 | 111.57488 | 34877 ft | 506 kts | 55° |
| 2026-04-28 15:03 | 18.27079 | 111.63632 | 34867 ft | 506 kts | 55° |
| 2026-04-28 15:03 | 18.30975 | 111.69786 | 34857 ft | 506 kts | 55° |
| 2026-04-28 15:04 | 18.34866 | 111.75942 | 34856 ft | 506 kts | 55° |
| 2026-04-28 15:04 | 18.38752 | 111.82111 | 34860 ft | 506 kts | 55° |
| 2026-04-28 15:05 | 18.42636 | 111.88273 | 34859 ft | 506 kts | 55° |
| 2026-04-28 15:05 | 18.46526 | 111.94441 | 34861 ft | 506 kts | 55° |
| 2026-04-28 15:06 | 18.50412 | 112.00606 | 34859 ft | 505 kts | 56° |
| 2026-04-28 15:06 | 18.54278 | 112.06746 | 34861 ft | 503 kts | 56° |
| 2026-04-28 15:07 | 18.58136 | 112.12882 | 34862 ft | 503 kts | 56° |
| 2026-04-28 15:07 | 18.61993 | 112.19022 | 34858 ft | 503 kts | 56° |
| 2026-04-28 15:08 | 18.66317 | 112.24750 | 34859 ft | 501 kts | 41° |
| 2026-04-28 15:08 | 18.71863 | 112.29148 | 34862 ft | 500 kts | 32° |
| 2026-04-28 15:09 | 18.77634 | 112.33221 | 34859 ft | 500 kts | 33° |
| 2026-04-28 15:09 | 18.83328 | 112.37413 | 34859 ft | 501 kts | 34° |
| 2026-04-28 15:10 | 18.88976 | 112.41706 | 34860 ft | 501 kts | 34° |
| 2026-04-28 15:10 | 18.94603 | 112.46015 | 34859 ft | 501 kts | 34° |
| 2026-04-28 15:11 | 19.00534 | 112.49793 | 34861 ft | 499 kts | 24° |
| 2026-04-28 15:11 | 19.06844 | 112.52794 | 34859 ft | 498 kts | 21° |
| 2026-04-28 15:12 | 19.13192 | 112.55708 | 34859 ft | 498 kts | 22° |
| 2026-04-28 15:12 | 19.19511 | 112.58694 | 34861 ft | 499 kts | 22° |
| 2026-04-28 15:13 | 19.25814 | 112.61719 | 34858 ft | 499 kts | 22° |
| 2026-04-28 15:13 | 19.32128 | 112.64761 | 34859 ft | 499 kts | 22° |
| 2026-04-28 15:14 | 19.38432 | 112.67798 | 34859 ft | 499 kts | 22° |
| 2026-04-28 15:14 | 19.44739 | 112.70836 | 34859 ft | 499 kts | 22° |
| 2026-04-28 15:15 | 19.51049 | 112.73879 | 34859 ft | 499 kts | 22° |
| 2026-04-28 15:15 | 19.57363 | 112.76928 | 34865 ft | 499 kts | 22° |
| 2026-04-28 15:16 | 19.63663 | 112.79971 | 34868 ft | 499 kts | 23° |
| 2026-04-28 15:16 | 19.69976 | 112.83022 | 34869 ft | 499 kts | 23° |
| 2026-04-28 15:17 | 19.76274 | 112.86072 | 34875 ft | 499 kts | 23° |
| 2026-04-28 15:17 | 19.82570 | 112.89128 | 34880 ft | 499 kts | 23° |
| 2026-04-28 15:18 | 19.88867 | 112.92181 | 34878 ft | 499 kts | 22° |
| 2026-04-28 15:18 | 19.95164 | 112.95235 | 34878 ft | 499 kts | 22° |
| 2026-04-28 15:19 | 20.01470 | 112.98296 | 34874 ft | 499 kts | 22° |
| 2026-04-28 15:19 | 20.07769 | 113.01358 | 34869 ft | 500 kts | 22° |
| 2026-04-28 15:20 | 20.14085 | 113.04430 | 34871 ft | 500 kts | 22° |
| 2026-04-28 15:20 | 20.20384 | 113.07497 | 34870 ft | 499 kts | 22° |
| 2026-04-28 15:21 | 20.26695 | 113.10572 | 34877 ft | 499 kts | 22° |
| 2026-04-28 15:21 | 20.32988 | 113.13643 | 34878 ft | 499 kts | 22° |
| 2026-04-28 15:22 | 20.39283 | 113.16714 | 34880 ft | 499 kts | 22° |
| 2026-04-28 15:22 | 20.45588 | 113.19794 | 34878 ft | 499 kts | 22° |
| 2026-04-28 15:23 | 20.51877 | 113.22874 | 34880 ft | 499 kts | 22° |
| 2026-04-28 15:23 | 20.58172 | 113.25961 | 34878 ft | 499 kts | 22° |
| 2026-04-28 15:24 | 20.64433 | 113.29031 | 34873 ft | 487 kts | 22° |
| 2026-04-28 15:24 | 20.70541 | 113.32029 | 34673 ft | 484 kts | 22° |
| 2026-04-28 15:24 | 20.73581 | 113.33519 | 34276 ft | 483 kts | 22° |
| 2026-04-28 15:25 | 20.76634 | 113.35016 | 33707 ft | 483 kts | 22° |
| 2026-04-28 15:25 | 20.79679 | 113.36511 | 33036 ft | 483 kts | 22° |
| 2026-04-28 15:25 | 20.82724 | 113.38007 | 32403 ft | 484 kts | 23° |
| 2026-04-28 15:25 | 20.85786 | 113.39511 | 31768 ft | 485 kts | 23° |
| 2026-04-28 15:26 | 20.88850 | 113.41017 | 31131 ft | 486 kts | 23° |
| 2026-04-28 15:26 | 20.91919 | 113.42527 | 30499 ft | 487 kts | 23° |
| 2026-04-28 15:26 | 20.94994 | 113.44041 | 29871 ft | 488 kts | 23° |
| 2026-04-28 15:26 | 20.98076 | 113.45560 | 29164 ft | 488 kts | 23° |
| 2026-04-28 15:27 | 21.01134 | 113.47067 | 28466 ft | 483 kts | 23° |
| 2026-04-28 15:27 | 21.04166 | 113.48563 | 27771 ft | 478 kts | 23° |
| 2026-04-28 15:27 | 21.07170 | 113.50045 | 27090 ft | 474 kts | 23° |
| 2026-04-28 15:27 | 21.10143 | 113.51512 | 26406 ft | 469 kts | 23° |
| 2026-04-28 15:28 | 21.13089 | 113.52966 | 25750 ft | 465 kts | 23° |
| 2026-04-28 15:28 | 21.16007 | 113.54406 | 25088 ft | 460 kts | 23° |
| 2026-04-28 15:28 | 21.18894 | 113.55832 | 24437 ft | 456 kts | 23° |
| 2026-04-28 15:28 | 21.21762 | 113.57249 | 23781 ft | 452 kts | 23° |
| 2026-04-28 15:29 | 21.24592 | 113.58649 | 23139 ft | 448 kts | 23° |
| 2026-04-28 15:29 | 21.27405 | 113.60044 | 22501 ft | 444 kts | 23° |
| 2026-04-28 15:29 | 21.30202 | 113.61392 | 21870 ft | 439 kts | 22° |
| 2026-04-28 15:29 | 21.32996 | 113.62663 | 21187 ft | 435 kts | 21° |
| 2026-04-28 15:30 | 21.35767 | 113.63887 | 20522 ft | 430 kts | 20° |
| 2026-04-28 15:30 | 21.38519 | 113.65091 | 19857 ft | 426 kts | 20° |
| 2026-04-28 15:30 | 21.41243 | 113.66281 | 19207 ft | 421 kts | 20° |
| 2026-04-28 15:30 | 21.43938 | 113.67461 | 18552 ft | 417 kts | 21° |
| 2026-04-28 15:31 | 21.46592 | 113.68642 | 17906 ft | 413 kts | 21° |
| 2026-04-28 15:31 | 21.49221 | 113.69828 | 17286 ft | 409 kts | 21° |
| 2026-04-28 15:31 | 21.51821 | 113.71007 | 16674 ft | 405 kts | 21° |
| 2026-04-28 15:31 | 21.54398 | 113.72176 | 16054 ft | 401 kts | 21° |
| 2026-04-28 15:32 | 21.56947 | 113.73335 | 15445 ft | 397 kts | 21° |
| 2026-04-28 15:32 | 21.58636 | 113.74101 | 15046 ft | 395 kts | 21° |
| 2026-04-28 15:32 | 21.61985 | 113.75623 | 14242 ft | 390 kts | 21° |
| 2026-04-28 15:32 | 21.64467 | 113.76750 | 13653 ft | 386 kts | 21° |
| 2026-04-28 15:33 | 21.66911 | 113.77861 | 13086 ft | 381 kts | 21° |
| 2026-04-28 15:33 | 21.69324 | 113.78959 | 12531 ft | 375 kts | 21° |
| 2026-04-28 15:33 | 21.71704 | 113.80041 | 11978 ft | 369 kts | 21° |
| 2026-04-28 15:33 | 21.74048 | 113.81108 | 11442 ft | 364 kts | 22° |
| 2026-04-28 15:34 | 21.76346 | 113.82157 | 10976 ft | 356 kts | 22° |
| 2026-04-28 15:34 | 21.78598 | 113.83188 | 10526 ft | 350 kts | 22° |
| 2026-04-28 15:34 | 21.80817 | 113.84205 | 10077 ft | 344 kts | 22° |
| 2026-04-28 15:34 | 21.82995 | 113.85202 | 9607 ft | 339 kts | 22° |
| 2026-04-28 15:35 | 21.85131 | 113.86183 | 9171 ft | 326 kts | 22° |
| 2026-04-28 15:35 | 21.89089 | 113.87998 | 8259 ft | 295 kts | 22° |
| 2026-04-28 15:35 | 21.90926 | 113.88841 | 7877 ft | 280 kts | 22° |
| 2026-04-28 15:36 | 21.92671 | 113.89642 | 7521 ft | 267 kts | 22° |
| 2026-04-28 15:36 | 21.94360 | 113.90416 | 7173 ft | 264 kts | 22° |
| 2026-04-28 15:36 | 21.96045 | 113.91189 | 6822 ft | 263 kts | 22° |
| 2026-04-28 15:36 | 21.97719 | 113.91958 | 6475 ft | 261 kts | 23° |
| 2026-04-28 15:37 | 21.99378 | 113.92722 | 6147 ft | 259 kts | 23° |
| 2026-04-28 15:37 | 22.01027 | 113.93479 | 5822 ft | 257 kts | 23° |
| 2026-04-28 15:37 | 22.02659 | 113.94227 | 5499 ft | 255 kts | 23° |
| 2026-04-28 15:37 | 22.03745 | 113.94727 | 5284 ft | 254 kts | 23° |
| 2026-04-28 15:38 | 22.05896 | 113.95716 | 4850 ft | 252 kts | 23° |
| 2026-04-28 15:38 | 22.07494 | 113.96451 | 4588 ft | 249 kts | 23° |
| 2026-04-28 15:38 | 22.09076 | 113.97178 | 4334 ft | 246 kts | 23° |
| 2026-04-28 15:38 | 22.10646 | 113.97899 | 4086 ft | 245 kts | 23° |
| 2026-04-28 15:39 | 22.12205 | 113.98617 | 3829 ft | 245 kts | 23° |
| 2026-04-28 15:39 | 22.13773 | 113.99340 | 3599 ft | 242 kts | 23° |
| 2026-04-28 15:39 | 22.15288 | 114.00035 | 3354 ft | 231 kts | 23° |
| 2026-04-28 15:39 | 22.16719 | 114.00692 | 3111 ft | 218 kts | 23° |
| 2026-04-28 15:40 | 22.18053 | 114.01306 | 3057 ft | 201 kts | 23° |
| 2026-04-28 15:40 | 22.19323 | 114.01892 | 3098 ft | 198 kts | 23° |
| 2026-04-28 15:40 | 22.20588 | 114.02474 | 3087 ft | 197 kts | 23° |
| 2026-04-28 15:40 | 22.21824 | 114.03110 | 3081 ft | 198 kts | 36° |
| 2026-04-28 15:41 | 22.22810 | 114.04119 | 3096 ft | 197 kts | 48° |
| 2026-04-28 15:41 | 22.23730 | 114.05216 | 3010 ft | 198 kts | 50° |
| 2026-04-28 15:41 | 22.24630 | 114.06326 | 2809 ft | 195 kts | 50° |
| 2026-04-28 15:41 | 22.25536 | 114.07419 | 2711 ft | 195 kts | 47° |
| 2026-04-28 15:42 | 22.26466 | 114.08483 | 2627 ft | 194 kts | 47° |
| 2026-04-28 15:42 | 22.27388 | 114.09544 | 2513 ft | 194 kts | 46° |
| 2026-04-28 15:42 | 22.28371 | 114.10538 | 2430 ft | 194 kts | 41° |
| 2026-04-28 15:42 | 22.29430 | 114.11441 | 2386 ft | 193 kts | 38° |
| 2026-04-28 15:43 | 22.30498 | 114.12328 | 2209 ft | 194 kts | 39° |
| 2026-04-28 15:43 | 22.31531 | 114.13214 | 1896 ft | 185 kts | 40° |
| 2026-04-28 15:43 | 22.32471 | 114.14115 | 1470 ft | 175 kts | 46° |
| 2026-04-28 15:43 | 22.33231 | 114.15116 | 1068 ft | 171 kts | 61° |
| 2026-04-28 15:44 | 22.33619 | 114.16303 | 813 ft | 168 kts | 86° |
| 2026-04-28 15:44 | 22.33476 | 114.17538 | 541 ft | 167 kts | 111° |
| 2026-04-28 15:44 | 22.32961 | 114.18645 | 318 ft | 166 kts | 123° |
| 2026-04-28 15:44 | 22.32229 | 114.19591 | 104 ft | 164 kts | 136° |
| 2026-04-28 15:45 | 22.31494 | 114.20414 | 44 ft | 123 kts | 134° |
| 2026-04-28 15:45 | 22.31081 | 114.20872 | 42 ft | 60 kts | 134° |
| 2026-04-28 15:45 | 22.30857 | 114.21145 | 44 ft | 39 kts | 121° |
| 2026-04-28 15:45 | 22.30823 | 114.21275 | 44 ft | 9 kts | 69° |
| 2026-04-28 15:46 | 22.30840 | 114.21286 | 44 ft | 1 kts | 8° |
| 2026-04-28 15:46 | 22.30864 | 114.21272 | 44 ft | 12 kts | 334° |
| 2026-04-28 15:46 | 22.30925 | 114.21218 | 44 ft | 7 kts | 302° |
| 2026-04-28 15:46 | 22.30960 | 114.21164 | 44 ft | 11 kts | 306° |
| 2026-04-28 15:47 | 22.31012 | 114.21096 | 44 ft | 10 kts | 319° |
| 2026-04-28 15:47 | 22.31077 | 114.21034 | 44 ft | 14 kts | 314° |
| 2026-04-28 15:47 | 22.31156 | 114.20945 | 44 ft | 17 kts | 314° |
| 2026-04-28 15:47 | 22.31235 | 114.20856 | 43 ft | 15 kts | 314° |
| 2026-04-28 15:48 | 22.31303 | 114.20780 | 42 ft | 13 kts | 314° |
| 2026-04-28 15:48 | 22.31360 | 114.20717 | 44 ft | 10 kts | 314° |
| 2026-04-28 15:48 | 22.31410 | 114.20660 | 44 ft | 11 kts | 314° |
| 2026-04-28 15:48 | 22.31466 | 114.20597 | 44 ft | 12 kts | 314° |
| 2026-04-28 15:49 | 22.31479 | 114.20587 | 44 ft | 1 kts | 336° |
| 2026-04-28 15:49 | 22.31490 | 114.20587 | 45 ft | 3 kts | 0° |
| 2026-04-28 15:49 | 22.31505 | 114.20593 | 46 ft | 3 kts | 22° |
| 2026-04-28 15:49 | 22.31526 | 114.20609 | 47 ft | 4 kts | 38° |
| 2026-04-28 15:50 | 22.31543 | 114.20627 | 49 ft | 3 kts | 45° |
| 2026-04-28 15:50 | 22.31561 | 114.20647 | 48 ft | 5 kts | 45° |
| 2026-04-28 15:50 | 22.31594 | 114.20682 | 50 ft | 10 kts | 45° |
| 2026-04-28 15:50 | 22.31658 | 114.20736 | 45 ft | 6 kts | 16° |
| 2026-04-28 15:51 | 22.31697 | 114.20719 | 44 ft | 8 kts | 328° |
| 2026-04-28 15:51 | 22.31752 | 114.20664 | 44 ft | 13 kts | 314° |
| 2026-04-28 15:51 | 22.31827 | 114.20580 | 44 ft | 16 kts | 314° |
| 2026-04-28 15:51 | 22.31858 | 114.20552 | 43 ft | 1 kts | 338° |
| 2026-04-28 15:52 | 22.31866 | 114.20552 | 44 ft | 1 kts | 2° |
| 2026-04-28 15:52 | 22.31879 | 114.20559 | 44 ft | 5 kts | 21° |
| 2026-04-28 15:52 | 22.31903 | 114.20574 | 44 ft | 2 kts | 36° |
| 2026-04-28 15:52 | 22.31915 | 114.20586 | 44 ft | 3 kts | 43° |
| 2026-04-28 15:53 | 22.31921 | 114.20592 | 44 ft | 0 kts | 43° |